West Plains, Missouri
Current Conditions -  °F | °C
As of 6:53 PM on Monday 20 Oct 2014 (Local Time) from KUNO Reporting Station
Clear Clear  
Wind Chill: 62°   Ceiling: Unl
Heat Index: 62°   Visibility: 10mi
Dew Point: 57°   Wind: 5mph
Humidity: 84%   Direction: 250°WSW
Pressure: 30.02"   Gusts: NA
Location:  36.73°N, 91.85°W
Report Text: KUNO 202353Z AUTO 25004KT 10SM CLR 17/14 A3002 RMK AO2 SLP160 T01670139 10239 20167 53005
Loading
Personal Weather Stations






























Interactive Weather Map
Tropical Storm Tracking
New forecast layout! Learn more

10-Day Weather Forecast

Advertisements
Track Severe Weather on mobile